createdAt,value
2022-10-08T00:09:39.212Z,7.90
2022-10-08T00:12:08.802Z,7.91
2022-10-08T00:14:40.333Z,7.89
2022-10-08T00:17:09.600Z,7.87
2022-10-08T00:19:38.927Z,7.83
2022-10-08T00:22:08.846Z,7.78
2022-10-08T00:24:40.639Z,7.70
2022-10-08T00:27:11.805Z,7.62
2022-10-08T00:44:04.321Z,7.58
2022-10-08T00:46:42.151Z,7.53
2022-10-08T00:49:12.497Z,7.54
2022-10-08T00:51:45.703Z,7.60
2022-10-08T00:54:15.578Z,7.59
2022-10-08T00:56:51.689Z,7.62
2022-10-08T00:59:22.073Z,7.64
2022-10-08T01:01:51.453Z,7.65
2022-10-08T01:04:20.493Z,7.63
2022-10-08T01:07:12.111Z,7.62
2022-10-08T01:09:50.068Z,7.62
2022-10-08T01:13:01.315Z,7.62
2022-10-08T01:15:35.291Z,7.62
2022-10-08T01:18:15.362Z,7.58
2022-10-08T01:21:00.705Z,7.52
2022-10-08T01:23:54.466Z,7.46
2022-10-08T01:26:40.199Z,7.39
2022-10-08T01:29:19.743Z,7.34
2022-10-08T01:31:55.092Z,7.32
2022-10-08T01:34:39.676Z,7.28
2022-10-08T01:37:15.008Z,7.15
2022-10-08T01:39:47.993Z,7.06
2022-10-08T01:42:20.759Z,7.01
2022-10-08T01:44:55.909Z,6.96
2022-10-08T01:47:31.868Z,6.91
2022-10-08T01:50:13.516Z,6.85
2022-10-08T01:52:51.889Z,6.80
2022-10-08T01:55:34.833Z,6.71
2022-10-08T01:58:35.046Z,6.58
2022-10-08T02:01:16.694Z,6.39
2022-10-08T02:04:07.727Z,6.14
2022-10-08T02:06:45.254Z,6.01
2022-10-08T02:09:15.767Z,5.97
2022-10-08T02:11:45.570Z,5.96
2022-10-08T02:14:14.964Z,5.98
2022-10-08T02:16:53.484Z,5.97
2022-10-08T02:19:39.490Z,5.96
2022-10-08T02:22:09.522Z,5.91
2022-10-08T02:24:49.008Z,5.86
2022-10-08T02:27:29.776Z,5.82
2022-10-08T02:30:08.474Z,5.79
2022-10-08T02:33:06.153Z,5.77
2022-10-08T02:35:58.067Z,5.75
2022-10-08T02:38:53.500Z,5.75
2022-10-08T02:41:29.770Z,5.73
2022-10-08T02:44:06.562Z,5.73
2022-10-08T02:46:41.413Z,5.71
2022-10-08T02:49:20.582Z,5.66
2022-10-08T02:51:52.357Z,5.59
2022-10-08T02:54:24.017Z,5.56
2022-10-08T02:57:09.425Z,5.56
2022-10-08T02:59:38.992Z,5.58
2022-10-08T03:02:13.170Z,5.60
2022-10-08T03:04:48.943Z,5.61
2022-10-08T03:07:18.420Z,5.62
2022-10-08T03:09:49.125Z,5.60
2022-10-08T03:12:19.159Z,5.55
2022-10-08T03:14:50.441Z,5.52
2022-10-08T03:17:30.950Z,5.49
2022-10-08T03:20:06.703Z,5.48
2022-10-08T03:22:36.605Z,5.46
2022-10-08T03:25:06.177Z,5.44
2022-10-08T03:27:36.101Z,5.43
2022-10-08T03:30:06.017Z,5.41
2022-10-08T03:32:34.900Z,5.41
2022-10-08T03:35:04.121Z,5.38
2022-10-08T03:37:33.497Z,5.36
2022-10-08T03:40:02.531Z,5.34
2022-10-08T03:42:31.402Z,5.33
2022-10-08T03:45:01.915Z,5.31
2022-10-08T03:47:31.212Z,5.29
2022-10-08T03:49:59.984Z,5.28
2022-10-08T03:52:31.277Z,5.28
2022-10-08T03:55:00.691Z,5.29
2022-10-08T03:57:29.273Z,5.28
2022-10-08T03:59:59.058Z,5.28
2022-10-08T04:02:28.283Z,5.29
2022-10-08T04:04:57.541Z,5.27
2022-10-08T04:07:27.326Z,5.27
2022-10-08T04:09:56.209Z,5.28
2022-10-08T04:12:24.965Z,5.27
2022-10-08T04:14:53.756Z,5.25
2022-10-08T04:17:23.800Z,5.24
2022-10-08T04:19:53.350Z,5.21
2022-10-08T04:22:22.162Z,5.20
2022-10-08T04:24:51.726Z,5.20
2022-10-08T04:27:21.442Z,5.21
2022-10-08T04:29:50.328Z,5.21
2022-10-08T04:32:19.121Z,5.22
2022-10-08T04:34:47.806Z,5.23
2022-10-08T04:37:16.537Z,5.25
2022-10-08T04:39:45.268Z,5.25
2022-10-08T04:42:14.115Z,5.26
2022-10-08T04:44:42.825Z,5.28
2022-10-08T04:47:11.647Z,5.30
2022-10-08T04:49:40.438Z,5.33
2022-10-08T04:52:10.260Z,5.35
2022-10-08T04:54:38.950Z,5.39
2022-10-08T04:57:07.742Z,5.43
2022-10-08T04:59:36.313Z,5.46
2022-10-08T05:02:08.447Z,5.49
2022-10-08T05:04:38.265Z,5.52
2022-10-08T05:07:06.692Z,5.56
2022-10-08T05:21:43.686Z,6.21
2022-10-08T05:24:13.003Z,6.40
2022-10-08T05:26:59.177Z,6.46
2022-10-08T05:29:30.564Z,6.50
2022-10-08T05:31:59.200Z,6.57
2022-10-08T05:34:28.298Z,6.61
2022-10-08T05:36:56.710Z,6.69
2022-10-08T05:39:25.145Z,6.79
2022-10-08T05:41:54.611Z,6.92
2022-10-08T05:44:23.372Z,7.10
2022-10-08T05:46:51.893Z,7.30
2022-10-08T05:49:23.011Z,7.46
2022-10-08T05:51:51.505Z,7.59
2022-10-08T05:54:20.558Z,7.76
2022-10-08T05:56:49.114Z,7.96
2022-10-08T05:59:21.356Z,8.20
2022-10-08T06:01:50.640Z,8.42
2022-10-08T06:04:19.658Z,8.57
2022-10-08T06:06:48.798Z,8.75
2022-10-08T06:09:20.139Z,8.99
2022-10-08T06:24:22.182Z,10.29
2022-10-08T06:26:50.883Z,10.60
2022-10-08T06:29:19.678Z,10.91
2022-10-08T06:31:49.082Z,10.98
2022-10-08T06:34:17.816Z,11.15
2022-10-08T06:49:56.523Z,13.38
2022-10-08T06:52:24.971Z,13.91
2022-10-08T06:54:54.114Z,13.96
2022-10-08T06:57:22.682Z,14.00
2022-10-08T06:59:55.359Z,14.08
2022-10-08T07:02:23.845Z,14.28
2022-10-08T07:04:52.223Z,14.48
2022-10-08T07:07:20.692Z,14.62
2022-10-08T07:09:49.153Z,15.04
2022-10-08T07:12:17.550Z,15.29
2022-10-08T07:14:45.972Z,15.75
2022-10-08T07:17:14.594Z,15.88
2022-10-08T07:19:43.004Z,16.27
2022-10-08T07:22:11.536Z,16.49
2022-10-08T07:24:39.949Z,16.91
2022-10-08T07:27:08.612Z,17.04
2022-10-08T07:29:37.086Z,17.46
2022-10-08T07:32:05.505Z,17.72
2022-10-08T07:34:34.040Z,17.86
2022-10-08T07:37:02.492Z,17.97
2022-10-08T07:39:30.831Z,17.84
2022-10-08T07:41:59.371Z,18.01
2022-10-08T07:44:27.709Z,18.35
2022-10-08T07:46:56.121Z,18.65
2022-10-08T07:49:24.744Z,18.91
2022-10-08T07:51:53.366Z,19.07
2022-10-08T07:54:21.854Z,18.99
2022-10-08T07:56:50.434Z,19.50
2022-10-08T07:59:18.815Z,19.68
2022-10-08T08:01:47.514Z,19.75
2022-10-08T08:04:16.278Z,20.04
2022-10-08T08:06:52.635Z,20.49
2022-10-08T08:09:21.487Z,20.60
2022-10-08T08:11:50.331Z,20.66
2022-10-08T08:14:20.319Z,20.85
2022-10-08T08:16:49.081Z,21.52
2022-10-08T08:19:17.759Z,21.95
2022-10-08T08:21:46.323Z,22.45
2022-10-08T08:24:15.708Z,21.96
2022-10-08T08:26:44.666Z,21.59
2022-10-08T08:29:15.986Z,21.67
2022-10-08T08:31:49.444Z,21.91
2022-10-08T08:34:24.554Z,22.11
2022-10-08T08:36:54.105Z,22.11
2022-10-08T08:39:25.376Z,22.79
2022-10-08T08:42:17.934Z,21.99
2022-10-08T08:45:46.514Z,21.57
2022-10-08T08:48:24.154Z,22.35
2022-10-08T08:50:58.950Z,22.77
2022-10-08T08:53:28.303Z,22.95
2022-10-08T08:56:00.516Z,23.69
2022-10-08T08:58:42.319Z,23.48
2022-10-08T09:01:17.911Z,23.59
2022-10-08T09:03:52.764Z,23.87
2022-10-08T09:06:26.366Z,24.24
2022-10-08T09:09:29.849Z,23.79
2022-10-08T09:11:58.857Z,23.56
2022-10-08T09:14:39.138Z,24.60
2022-10-08T09:17:19.289Z,25.22
2022-10-08T09:19:49.508Z,25.12
2022-10-08T09:22:35.556Z,24.53
2022-10-08T09:25:25.229Z,24.27
2022-10-08T09:27:56.761Z,24.80
2022-10-08T09:30:25.284Z,25.49
2022-10-08T09:32:56.019Z,25.47
2022-10-08T09:35:25.448Z,24.62
2022-10-08T09:37:56.715Z,24.62
2022-10-08T09:40:27.517Z,25.74
2022-10-08T09:43:13.077Z,25.49
2022-10-08T09:45:49.518Z,25.77
2022-10-08T09:48:29.616Z,25.96
2022-10-08T09:51:27.489Z,25.73
2022-10-08T09:53:59.945Z,25.83
2022-10-08T09:56:31.192Z,25.28
2022-10-08T09:59:05.830Z,25.58
2022-10-08T10:01:34.490Z,26.26
2022-10-08T10:04:03.656Z,25.88
2022-10-08T10:06:37.508Z,25.86
2022-10-08T10:09:23.407Z,25.61
2022-10-08T10:12:33.073Z,25.90
2022-10-08T10:15:14.789Z,26.31
2022-10-08T10:17:55.008Z,26.83
2022-10-08T10:20:32.129Z,26.33
2022-10-08T10:23:11.632Z,27.06
2022-10-08T10:26:11.179Z,26.74
2022-10-08T10:28:40.123Z,25.97
2022-10-08T10:31:16.900Z,26.05
2022-10-08T10:34:02.641Z,26.77
2022-10-08T10:36:51.358Z,26.90
2022-10-08T10:39:42.681Z,27.27
2022-10-08T10:42:18.936Z,27.87
2022-10-08T10:44:58.947Z,28.23
2022-10-08T10:47:34.518Z,27.36
2022-10-08T10:50:26.387Z,27.53
2022-10-08T10:53:29.950Z,27.71
2022-10-08T10:56:16.439Z,26.16
2022-10-08T10:59:23.533Z,26.90
2022-10-08T11:02:04.489Z,26.79
2022-10-08T11:05:01.930Z,27.66
2022-10-08T11:07:41.883Z,28.12
2022-10-08T11:11:11.792Z,28.57
2022-10-08T11:13:52.318Z,28.66
2022-10-08T11:16:44.855Z,28.91
2022-10-08T11:19:34.366Z,28.74
2022-10-08T11:22:39.734Z,28.25
2022-10-08T11:25:18.249Z,27.70
2022-10-08T11:27:55.855Z,27.07
2022-10-08T11:30:54.400Z,27.57
2022-10-08T11:33:24.005Z,28.56
2022-10-08T11:36:32.851Z,28.41
2022-10-08T11:39:16.638Z,28.42
2022-10-08T11:41:56.994Z,28.66
2022-10-08T11:44:27.094Z,28.24
2022-10-08T11:47:34.216Z,28.58
2022-10-08T11:50:06.092Z,28.80
2022-10-08T11:52:35.522Z,29.23
2022-10-08T11:55:04.975Z,29.30
2022-10-08T11:58:06.612Z,28.32
2022-10-08T12:00:31.352Z,28.87
2022-10-08T12:03:00.691Z,29.43
2022-10-08T12:05:42.962Z,29.68
2022-10-08T12:08:51.913Z,30.09
2022-10-08T12:11:32.637Z,30.30
2022-10-08T12:14:13.803Z,30.88
2022-10-08T12:16:48.701Z,30.37
2022-10-08T12:19:33.036Z,29.57
2022-10-08T12:22:25.469Z,28.43
2022-10-08T12:25:01.162Z,28.70
2022-10-08T12:27:37.849Z,28.01
2022-10-08T12:30:12.874Z,27.73
2022-10-08T12:32:44.155Z,28.75
2022-10-08T12:35:28.656Z,29.01
2022-10-08T12:37:59.914Z,29.12
2022-10-08T12:40:31.758Z,29.32
2022-10-08T12:43:15.625Z,29.20
2022-10-08T12:45:56.323Z,29.91
2022-10-08T12:48:34.411Z,28.73
2022-10-08T12:51:29.550Z,28.15
2022-10-08T12:53:58.508Z,27.87
2022-10-08T12:56:28.487Z,28.09
2022-10-08T12:59:01.929Z,27.75
2022-10-08T13:01:31.717Z,27.07
2022-10-08T13:04:21.164Z,27.10
2022-10-08T13:06:52.083Z,27.45
2022-10-08T13:09:31.062Z,26.94
2022-10-08T13:12:05.408Z,27.01
2022-10-08T13:14:36.986Z,26.44
2022-10-08T13:17:05.998Z,26.96
2022-10-08T13:19:38.573Z,27.53
2022-10-08T13:22:28.408Z,27.82
2022-10-08T13:24:56.896Z,27.93
2022-10-08T13:27:30.880Z,28.57
2022-10-08T13:30:01.031Z,29.12
2022-10-08T13:32:35.332Z,28.97
2022-10-08T14:07:04.362Z,27.82
2022-10-08T14:09:33.675Z,27.96
2022-10-08T14:12:05.496Z,27.95
2022-10-08T14:14:33.969Z,27.84
2022-10-08T14:17:02.400Z,28.09
2022-10-08T14:19:30.909Z,27.77
2022-10-08T14:22:01.035Z,27.68
2022-10-08T14:24:29.433Z,27.90
2022-10-08T14:26:58.348Z,27.90
2022-10-08T14:29:26.883Z,28.15
2022-10-08T14:31:55.647Z,28.02
2022-10-08T14:34:24.192Z,27.87
2022-10-08T14:36:57.256Z,27.43
2022-10-08T14:39:27.159Z,27.71
2022-10-08T14:41:55.699Z,27.81
2022-10-08T14:44:24.425Z,27.57
2022-10-08T14:46:53.120Z,27.36
2022-10-08T14:49:22.578Z,27.42
2022-10-08T14:51:51.010Z,26.79
2022-10-08T14:54:19.775Z,26.52
2022-10-08T14:56:48.319Z,26.15
2022-10-08T14:59:16.757Z,26.14
2022-10-08T15:01:45.641Z,25.87
2022-10-08T15:04:15.426Z,25.32
2022-10-08T15:06:44.056Z,24.83
2022-10-08T15:09:13.879Z,24.10
2022-10-08T15:11:42.982Z,23.46
2022-10-08T15:14:11.579Z,22.87
2022-10-08T15:16:40.498Z,22.29
2022-10-08T15:39:12.136Z,18.86
2022-10-08T15:41:43.517Z,17.99
2022-10-08T15:44:32.860Z,17.66
2022-10-08T15:47:06.351Z,17.36
2022-10-08T15:49:37.199Z,17.02
2022-10-08T15:52:07.889Z,16.75
2022-10-08T15:54:37.652Z,16.52
2022-10-08T15:57:07.864Z,16.34
2022-10-08T15:59:36.920Z,16.17
2022-10-08T16:02:06.525Z,16.10
2022-10-08T16:04:35.063Z,16.00
2022-10-08T16:07:03.578Z,15.90
2022-10-08T16:09:32.044Z,15.81
2022-10-08T16:12:00.460Z,15.68
2022-10-08T16:14:29.046Z,15.58
2022-10-08T16:16:57.693Z,15.48
2022-10-08T16:19:27.426Z,15.40
2022-10-08T16:21:57.031Z,15.30
2022-10-08T16:24:25.886Z,15.17
2022-10-08T16:26:54.369Z,15.09
2022-10-08T16:29:22.748Z,15.01
2022-10-08T16:31:51.159Z,14.92
2022-10-08T16:34:21.636Z,14.83
2022-10-08T16:36:51.435Z,14.72
2022-10-08T16:39:21.339Z,14.59
2022-10-08T16:41:50.548Z,14.46
2022-10-08T16:44:20.597Z,14.36
2022-10-08T16:59:54.480Z,14.28
2022-10-08T17:02:25.990Z,14.11
2022-10-08T17:04:55.534Z,13.91
2022-10-08T17:07:23.891Z,13.82
2022-10-08T17:09:53.665Z,13.71
2022-10-08T17:23:50.376Z,13.53
2022-10-08T17:26:21.954Z,13.37
2022-10-08T17:28:52.415Z,13.28
2022-10-08T17:31:27.051Z,13.18
2022-10-08T17:48:21.597Z,13.09
2022-10-08T17:50:49.927Z,12.92
2022-10-08T17:53:18.575Z,12.80
2022-10-08T17:55:58.000Z,12.65
2022-10-08T17:58:26.543Z,12.57
2022-10-08T18:01:10.649Z,12.45
2022-10-08T18:03:40.592Z,12.36
2022-10-08T18:06:11.776Z,12.27
2022-10-08T18:08:40.184Z,12.18
2022-10-08T18:11:11.224Z,12.11
2022-10-08T18:13:40.393Z,12.02
2022-10-08T18:16:12.912Z,11.94
2022-10-08T18:18:42.580Z,11.84
2022-10-08T18:21:16.762Z,11.68
2022-10-08T18:23:47.012Z,11.56
2022-10-08T18:26:26.242Z,11.45
2022-10-08T18:28:59.731Z,11.31
2022-10-08T18:31:31.481Z,11.21
2022-10-08T18:34:02.974Z,11.14
2022-10-08T18:36:33.922Z,11.06
2022-10-08T18:39:04.444Z,11.02
2022-10-08T18:41:38.927Z,10.98
2022-10-08T18:44:10.831Z,10.95
2022-10-08T18:46:39.734Z,10.94
2022-10-08T18:49:08.161Z,10.91
2022-10-08T18:51:36.548Z,10.89
2022-10-08T18:54:05.124Z,10.87
2022-10-08T18:56:35.898Z,10.85
2022-10-08T18:59:17.546Z,10.85
2022-10-08T19:01:47.689Z,10.86
2022-10-08T19:04:19.824Z,10.87
2022-10-08T19:06:51.058Z,10.85
2022-10-08T19:09:21.018Z,10.81
2022-10-08T19:11:52.332Z,10.80
2022-10-08T19:14:23.337Z,10.77
2022-10-08T19:16:52.613Z,10.75
2022-10-08T19:19:32.000Z,10.73
2022-10-08T19:22:03.498Z,10.70
2022-10-08T19:24:32.051Z,10.69
2022-10-08T19:27:01.218Z,10.66
2022-10-08T19:29:39.045Z,10.66
2022-10-08T19:32:07.457Z,10.64
2022-10-08T19:34:35.941Z,10.63
2022-10-08T19:37:04.678Z,10.63
2022-10-08T19:39:34.221Z,10.61
2022-10-08T19:42:02.683Z,10.58
2022-10-08T19:44:31.092Z,10.53
2022-10-08T19:46:59.516Z,10.45
2022-10-08T19:49:27.974Z,10.38
2022-10-08T19:51:56.424Z,10.32
2022-10-08T19:54:25.701Z,10.28
2022-10-08T19:56:56.127Z,10.26
2022-10-08T19:59:24.498Z,10.22
2022-10-08T20:01:53.030Z,10.17
2022-10-08T20:04:23.544Z,10.14
2022-10-08T20:06:52.626Z,10.09
2022-10-08T20:09:21.393Z,10.06
2022-10-08T20:11:49.830Z,10.04
2022-10-08T20:14:18.178Z,10.03
2022-10-08T20:16:47.835Z,10.02
2022-10-08T20:19:19.852Z,10.00
2022-10-08T20:21:50.634Z,9.97
2022-10-08T20:24:19.515Z,9.97
2022-10-08T20:26:49.325Z,9.97
2022-10-08T20:29:21.151Z,9.97
2022-10-08T20:31:55.380Z,9.97
2022-10-08T20:34:31.423Z,9.99
2022-10-08T20:37:02.585Z,9.98
2022-10-08T20:39:31.387Z,9.97
2022-10-08T20:42:00.008Z,9.95
2022-10-08T20:44:28.417Z,9.94
2022-10-08T20:46:56.991Z,9.93
2022-10-08T20:49:26.203Z,9.91
2022-10-08T20:51:54.649Z,9.87
2022-10-08T20:54:23.560Z,9.85
2022-10-08T20:56:51.950Z,9.79
2022-10-08T20:59:20.576Z,9.76
2022-10-08T21:01:51.107Z,9.74
2022-10-08T21:04:20.655Z,9.72
2022-10-08T21:06:51.091Z,9.69
2022-10-08T21:09:22.351Z,9.68
2022-10-08T21:11:51.426Z,9.67
2022-10-08T21:14:22.966Z,9.65
2022-10-08T21:16:53.793Z,9.62
2022-10-08T21:19:23.391Z,9.58
2022-10-08T21:21:52.974Z,9.53
2022-10-08T21:24:21.543Z,9.49
2022-10-08T21:26:50.000Z,9.48
2022-10-08T21:29:18.508Z,9.46
2022-10-08T21:31:46.971Z,9.43
2022-10-08T21:34:16.418Z,9.41
2022-10-08T21:36:44.927Z,9.39
2022-10-08T21:39:17.847Z,9.36
2022-10-08T21:41:46.571Z,9.33
2022-10-08T21:44:15.375Z,9.33
2022-10-08T21:46:44.653Z,9.32
2022-10-08T21:49:20.906Z,9.29
2022-10-08T21:51:49.443Z,9.23
2022-10-08T21:54:18.483Z,9.17
2022-10-08T21:56:47.319Z,9.10
2022-10-08T21:59:16.940Z,9.05
2022-10-08T22:01:50.777Z,9.02
2022-10-08T22:04:22.159Z,9.00
2022-10-08T22:06:53.865Z,8.98
2022-10-08T22:09:26.986Z,8.98
2022-10-08T22:11:59.910Z,8.96
2022-10-08T22:14:29.764Z,8.93
2022-10-08T22:16:58.545Z,8.90
2022-10-08T22:19:27.701Z,8.88
2022-10-08T22:21:56.311Z,8.87
2022-10-08T22:24:25.334Z,8.84
2022-10-08T22:26:54.290Z,8.81
2022-10-08T22:29:23.011Z,8.78
2022-10-08T22:31:53.935Z,8.75
2022-10-08T22:34:22.746Z,8.73
2022-10-08T22:36:51.673Z,8.68
2022-10-08T22:39:20.560Z,8.66
2022-10-08T22:41:49.278Z,8.62
2022-10-08T22:44:18.559Z,8.58
2022-10-08T22:46:47.766Z,8.54
2022-10-08T22:49:16.547Z,8.53
2022-10-08T22:51:45.915Z,8.52
2022-10-08T22:54:15.243Z,8.53
2022-10-08T22:56:43.982Z,8.53
2022-10-08T22:59:13.641Z,8.56
2022-10-08T23:01:42.885Z,8.54
2022-10-08T23:04:11.928Z,8.51
2022-10-08T23:06:41.235Z,8.48
2022-10-08T23:09:13.569Z,8.47
2022-10-08T23:11:42.571Z,8.48
2022-10-08T23:14:12.404Z,8.48
2022-10-08T23:16:41.259Z,8.48
2022-10-08T23:19:12.954Z,8.48
2022-10-08T23:21:44.418Z,8.48
2022-10-08T23:24:14.549Z,8.46
2022-10-08T23:26:44.260Z,8.44
2022-10-08T23:29:13.449Z,8.39
2022-10-08T23:31:42.502Z,8.34
2022-10-08T23:34:11.930Z,8.32
2022-10-08T23:36:43.627Z,8.32
2022-10-08T23:39:16.014Z,8.31
2022-10-08T23:41:45.313Z,8.29
2022-10-08T23:44:14.895Z,8.27
2022-10-08T23:46:45.566Z,8.21
2022-10-08T23:49:14.637Z,8.15
2022-10-08T23:51:43.892Z,8.12
2022-10-08T23:54:13.230Z,8.10
2022-10-08T23:56:42.239Z,8.08
2022-10-08T23:59:11.401Z,8.07
